createdAt,value
2022-08-09T00:02:53.265Z,99.90
2022-08-09T00:06:16.125Z,99.90
2022-08-09T00:08:31.336Z,99.90
2022-08-09T00:11:00.792Z,99.90
2022-08-09T00:16:07.037Z,99.90
2022-08-09T00:18:36.986Z,99.90
2022-08-09T00:21:07.938Z,99.90
2022-08-09T00:23:58.233Z,99.90
2022-08-09T00:26:29.733Z,99.90
2022-08-09T00:29:01.237Z,99.90
2022-08-09T00:31:57.565Z,99.90
2022-08-09T00:34:19.992Z,99.90
2022-08-09T00:36:49.303Z,99.90
2022-08-09T00:40:13.020Z,99.90
2022-08-09T00:44:16.261Z,99.90
2022-08-09T00:44:55.748Z,99.90
2022-08-09T00:47:24.944Z,99.90
2022-08-09T00:49:56.688Z,99.90
2022-08-09T00:52:28.071Z,99.90
2022-08-09T00:55:00.370Z,99.90
2022-08-09T00:57:34.330Z,99.90
2022-08-09T01:00:21.539Z,99.90
2022-08-09T01:02:51.503Z,99.90
2022-08-09T01:05:51.018Z,99.90
2022-08-09T01:08:16.521Z,99.90
2022-08-09T01:10:51.162Z,99.90
2022-08-09T01:13:22.300Z,99.90
2022-08-09T01:15:54.668Z,99.90
2022-08-09T01:18:30.162Z,99.90
2022-08-09T01:21:14.412Z,99.90
2022-08-09T01:24:01.029Z,99.90
2022-08-09T01:26:53.461Z,99.90
2022-08-09T01:29:28.031Z,99.90
2022-08-09T01:32:32.534Z,99.90
2022-08-09T01:34:49.719Z,99.90
2022-08-09T01:37:42.852Z,99.90
2022-08-09T01:40:11.097Z,99.90
2022-08-09T01:42:54.592Z,99.90
2022-08-09T01:45:24.426Z,99.90
2022-08-09T01:47:53.783Z,99.90
2022-08-09T01:50:29.914Z,99.90
2022-08-09T01:55:48.943Z,99.90
2022-08-09T01:58:19.056Z,99.90
2022-08-09T02:08:38.438Z,99.90
2022-08-09T02:11:21.212Z,99.90
2022-08-09T02:13:55.488Z,99.90
2022-08-09T02:16:53.381Z,99.90
2022-08-09T02:19:34.959Z,99.90
2022-08-09T02:22:12.534Z,99.90
2022-08-09T02:24:42.321Z,99.90
2022-08-09T02:27:18.663Z,99.90
2022-08-09T02:29:51.389Z,99.90
2022-08-09T02:32:22.472Z,99.90
2022-08-09T02:34:55.944Z,99.90
2022-08-09T02:37:31.815Z,99.90
2022-08-09T02:40:04.977Z,99.90
2022-08-09T02:42:40.416Z,99.90
2022-08-09T02:45:15.193Z,99.90
2022-08-09T02:47:57.339Z,99.90
2022-08-09T02:50:30.501Z,99.90
2022-08-09T02:53:00.954Z,99.90
2022-08-09T02:55:39.385Z,99.90
2022-08-09T02:58:32.325Z,99.90
2022-08-09T03:01:04.331Z,99.90
2022-08-09T03:03:37.319Z,99.90
2022-08-09T03:06:25.153Z,99.90
2022-08-09T03:08:56.577Z,99.90
2022-08-09T03:12:04.629Z,99.90
2022-08-09T03:14:15.986Z,99.90
2022-08-09T03:16:48.183Z,99.90
2022-08-09T03:19:58.649Z,99.90
2022-08-09T03:22:12.408Z,99.90
2022-08-09T03:25:21.315Z,99.90
2022-08-09T03:27:45.299Z,99.90
2022-08-09T03:30:29.847Z,99.90
2022-08-09T03:33:17.782Z,99.90
2022-08-09T03:36:12.453Z,99.90
2022-08-09T03:38:41.881Z,99.90
2022-08-09T03:41:15.084Z,99.90
2022-08-09T03:44:03.043Z,99.90
2022-08-09T03:46:33.806Z,99.90
2022-08-09T03:49:08.242Z,99.90
2022-08-09T03:51:54.234Z,99.90
2022-08-09T03:54:31.093Z,99.90
2022-08-09T03:57:12.403Z,99.90
2022-08-09T03:59:55.074Z,99.90
2022-08-09T04:02:27.981Z,99.90
2022-08-09T04:05:01.443Z,99.90
2022-08-09T04:07:52.460Z,99.90
2022-08-09T04:10:28.906Z,99.90
2022-08-09T04:13:00.746Z,99.90
2022-08-09T04:16:17.421Z,99.90
2022-08-09T04:18:21.524Z,99.90
2022-08-09T04:20:52.143Z,99.90
2022-08-09T04:23:24.700Z,99.90
2022-08-09T04:25:54.675Z,99.90
2022-08-09T04:28:33.830Z,99.90
2022-08-09T04:31:07.945Z,99.90
2022-08-09T04:33:47.198Z,99.90
2022-08-09T04:36:26.232Z,99.90
2022-08-09T04:38:55.443Z,99.90
2022-08-09T04:41:32.867Z,99.90
2022-08-09T04:44:06.491Z,99.90
2022-08-09T04:46:56.885Z,99.90
2022-08-09T04:49:40.508Z,99.90
2022-08-09T04:52:27.532Z,99.90
2022-08-09T04:54:57.002Z,99.90
2022-08-09T04:57:25.918Z,99.90
2022-08-09T04:59:55.711Z,99.90
2022-08-09T05:02:30.638Z,99.90
2022-08-09T05:05:09.925Z,99.90
2022-08-09T05:07:40.022Z,99.90
2022-08-09T05:10:09.581Z,99.90
2022-08-09T05:12:39.014Z,99.90
2022-08-09T05:15:11.476Z,99.90
2022-08-09T05:18:38.046Z,99.90
2022-08-09T05:20:30.510Z,99.90
2022-08-09T05:23:51.121Z,99.90
2022-08-09T05:25:50.875Z,99.90
2022-08-09T05:28:20.516Z,99.90
2022-08-09T05:30:51.540Z,99.90
2022-08-09T05:33:26.350Z,99.90
2022-08-09T05:36:04.304Z,99.90
2022-08-09T05:38:39.106Z,99.90
2022-08-09T05:41:08.456Z,99.90
2022-08-09T05:43:45.305Z,99.90
2022-08-09T05:46:18.114Z,99.90
2022-08-09T05:48:48.764Z,99.90
2022-08-09T05:51:42.879Z,99.90
2022-08-09T05:54:17.930Z,99.90
2022-08-09T05:56:54.430Z,99.90
2022-08-09T05:59:24.090Z,99.90
2022-08-09T06:01:58.941Z,99.90
2022-08-09T06:04:35.071Z,99.90
2022-08-09T06:07:04.214Z,99.90
2022-08-09T06:09:55.219Z,99.90
2022-08-09T06:12:22.539Z,99.90
2022-08-09T06:14:55.032Z,99.90
2022-08-09T06:17:40.350Z,99.90
2022-08-09T06:20:09.922Z,99.90
2022-08-09T06:22:39.391Z,99.90
2022-08-09T06:25:12.256Z,99.90
2022-08-09T06:27:51.544Z,99.90
2022-08-09T06:30:20.755Z,99.90
2022-08-09T06:33:00.609Z,99.90
2022-08-09T06:35:56.353Z,99.90
2022-08-09T06:38:36.306Z,99.90
2022-08-09T06:41:13.507Z,99.90
2022-08-09T06:43:47.733Z,99.90
2022-08-09T06:46:38.989Z,99.90
2022-08-09T06:49:05.061Z,99.90
2022-08-09T06:51:39.971Z,99.90
2022-08-09T06:54:09.152Z,99.90
2022-08-09T06:56:45.471Z,99.90
2022-08-09T07:00:51.003Z,99.90
2022-08-09T07:02:04.930Z,99.90
2022-08-09T07:04:34.132Z,99.90
2022-08-09T07:07:04.789Z,99.90
2022-08-09T07:09:53.585Z,99.90
2022-08-09T07:12:38.607Z,99.90
2022-08-09T07:16:38.931Z,99.90
2022-08-09T07:18:02.343Z,99.90
2022-08-09T07:20:31.578Z,99.90
2022-08-09T07:23:00.713Z,99.90
2022-08-09T07:25:30.010Z,99.90
2022-08-09T07:28:09.582Z,99.90
2022-08-09T07:30:48.163Z,99.90
2022-08-09T07:33:17.419Z,99.90
2022-08-09T07:35:53.572Z,99.90
2022-08-09T07:40:54.088Z,99.90
2022-08-09T07:43:31.151Z,99.90
2022-08-09T07:46:11.677Z,99.90
2022-08-09T07:48:58.807Z,99.90
2022-08-09T07:52:05.142Z,99.90
2022-08-09T07:54:19.232Z,99.90
2022-08-09T07:56:56.404Z,99.90
2022-08-09T07:59:34.406Z,99.90
2022-08-09T08:02:19.187Z,99.90
2022-08-09T08:04:49.405Z,99.90
2022-08-09T08:08:43.660Z,99.90
2022-08-09T08:10:11.696Z,99.90
2022-08-09T08:12:43.177Z,99.90
2022-08-09T08:15:16.893Z,99.90
2022-08-09T08:20:28.636Z,99.90
2022-08-09T08:23:03.788Z,99.90
2022-08-09T08:25:40.049Z,99.90
2022-08-09T08:28:14.229Z,99.90
2022-08-09T08:30:45.439Z,99.90
2022-08-09T08:35:59.482Z,99.90
2022-08-09T08:38:29.711Z,99.90
2022-08-09T08:40:59.260Z,99.90
2022-08-09T08:43:28.337Z,99.90
2022-08-09T08:46:09.797Z,99.90
2022-08-09T08:48:51.853Z,99.90
2022-08-09T08:51:22.527Z,99.90
2022-08-09T08:54:04.217Z,99.90
2022-08-09T08:56:35.305Z,99.90
2022-08-09T08:59:18.759Z,99.90
2022-08-09T09:01:53.104Z,99.90
2022-08-09T09:04:29.863Z,99.90
2022-08-09T09:07:03.293Z,99.90
2022-08-09T09:09:58.029Z,99.90
2022-08-09T09:12:29.201Z,99.90
2022-08-09T09:14:59.342Z,99.90
2022-08-09T09:17:48.452Z,99.90
2022-08-09T09:20:17.966Z,99.90
2022-08-09T09:22:53.933Z,99.90
2022-08-09T09:26:03.772Z,99.90
2022-08-09T09:29:03.029Z,99.90
2022-08-09T09:32:04.578Z,99.90
2022-08-09T09:34:15.328Z,99.90
2022-08-09T09:36:53.795Z,99.90
2022-08-09T09:39:25.573Z,99.90
2022-08-09T09:42:22.808Z,99.90
2022-08-09T09:44:57.197Z,99.90
2022-08-09T09:47:26.591Z,99.90
2022-08-09T09:50:14.097Z,99.90
2022-08-09T09:52:53.608Z,99.90
2022-08-09T09:55:27.851Z,99.90
2022-08-09T09:58:16.647Z,99.90
2022-08-09T10:03:44.488Z,99.90
2022-08-09T10:06:15.602Z,99.90
2022-08-09T10:08:55.289Z,99.90
2022-08-09T10:11:59.219Z,99.90
2022-08-09T10:14:27.296Z,99.90
2022-08-09T10:17:11.482Z,99.90
2022-08-09T10:19:53.010Z,99.90
2022-08-09T10:22:34.521Z,99.90
2022-08-09T10:25:11.050Z,99.90
2022-08-09T10:27:54.555Z,99.90
2022-08-09T10:34:04.937Z,99.90
2022-08-09T10:36:04.691Z,99.90
2022-08-09T10:38:57.257Z,99.90
2022-08-09T10:41:23.460Z,99.90
2022-08-09T10:44:00.105Z,98.40
2022-08-09T10:46:55.213Z,99.70
2022-08-09T10:49:50.459Z,99.90
2022-08-09T10:52:23.341Z,97.00
2022-08-09T10:54:56.663Z,95.60
2022-08-09T10:57:36.365Z,93.30
2022-08-09T11:00:32.396Z,93.40
2022-08-09T11:03:15.879Z,96.40
2022-08-09T11:06:06.874Z,91.90
2022-08-09T11:11:09.204Z,89.00
2022-08-09T11:13:51.031Z,83.20
2022-08-09T11:16:37.250Z,90.10
2022-08-09T11:19:11.252Z,88.40
2022-08-09T11:22:05.393Z,83.90
2022-08-09T11:25:04.449Z,81.50
2022-08-09T11:28:02.602Z,82.80
2022-08-09T11:30:35.629Z,78.80
2022-08-09T11:33:06.851Z,83.40
2022-08-09T11:35:49.345Z,79.70
2022-08-09T11:38:22.142Z,79.60
2022-08-09T11:40:54.681Z,78.70
2022-08-09T11:43:42.258Z,79.90
2022-08-09T11:46:12.522Z,82.00
2022-08-09T11:48:49.151Z,82.70
2022-08-09T11:52:53.637Z,81.40
2022-08-09T11:54:27.554Z,81.60
2022-08-09T11:57:28.394Z,78.40
2022-08-09T12:00:16.245Z,79.80
2022-08-09T12:02:51.085Z,80.40
2022-08-09T12:05:22.831Z,81.40
2022-08-09T12:10:39.529Z,77.00
2022-08-09T12:14:07.336Z,78.50
2022-08-09T12:16:03.244Z,79.00
2022-08-09T12:18:33.851Z,79.00
2022-08-09T12:21:10.992Z,79.70
2022-08-09T12:24:06.212Z,79.60
2022-08-09T12:26:39.483Z,77.80
2022-08-09T12:29:30.033Z,74.70
2022-08-09T12:32:03.548Z,71.30
2022-08-09T12:34:37.825Z,79.20
2022-08-09T12:37:09.764Z,80.10
2022-08-09T12:40:06.691Z,85.00
2022-08-09T12:42:35.823Z,90.80
2022-08-09T12:45:07.059Z,87.80
2022-08-09T12:47:55.798Z,84.80
2022-08-09T12:50:25.942Z,85.60
2022-08-09T12:53:18.143Z,90.80
2022-08-09T12:56:11.525Z,86.10
2022-08-09T12:58:32.947Z,90.30
2022-08-09T13:01:04.684Z,86.70
2022-08-09T13:03:53.944Z,89.70
2022-08-09T13:06:34.213Z,88.20
2022-08-09T13:09:08.301Z,88.50
2022-08-09T13:11:39.627Z,84.70
2022-08-09T13:14:40.761Z,83.80
2022-08-09T13:17:01.974Z,84.40
2022-08-09T13:20:10.211Z,82.60
2022-08-09T13:25:12.191Z,82.80
2022-08-09T13:27:55.416Z,82.70
2022-08-09T13:30:50.842Z,84.40
2022-08-09T13:33:23.313Z,82.50
2022-08-09T13:36:24.467Z,84.20
2022-08-09T13:38:57.506Z,83.40
2022-08-09T13:41:58.821Z,85.80
2022-08-09T13:44:17.923Z,87.70
2022-08-09T13:47:25.235Z,81.20
2022-08-09T13:49:38.099Z,80.20
2022-08-09T13:52:24.707Z,81.60
2022-08-09T13:55:00.785Z,82.50
2022-08-09T13:57:39.612Z,81.80
2022-08-09T14:00:12.144Z,80.60
2022-08-09T14:03:04.082Z,79.90
2022-08-09T14:06:00.134Z,81.10
2022-08-09T14:08:20.736Z,82.80
2022-08-09T14:10:53.101Z,80.10
2022-08-09T14:14:15.858Z,85.30
2022-08-09T14:16:15.063Z,83.00
2022-08-09T14:18:50.450Z,82.70
2022-08-09T14:21:22.511Z,79.70
2022-08-09T14:23:54.591Z,81.20
2022-08-09T14:26:30.161Z,83.40
2022-08-09T14:29:07.374Z,80.30
2022-08-09T14:31:52.119Z,81.80
2022-08-09T14:34:31.113Z,88.00
2022-08-09T14:37:02.688Z,88.50
2022-08-09T14:39:45.743Z,85.40
2022-08-09T14:42:31.782Z,83.20
2022-08-09T14:46:39.755Z,85.10
2022-08-09T14:47:57.966Z,84.30
2022-08-09T14:50:29.126Z,84.40
2022-08-09T14:52:57.874Z,86.90
2022-08-09T14:55:29.205Z,89.30
2022-08-09T14:58:02.853Z,87.20
2022-08-09T15:00:36.248Z,85.30
2022-08-09T15:03:06.828Z,86.80
2022-08-09T15:05:36.508Z,86.20
2022-08-09T15:08:05.916Z,86.70
2022-08-09T15:10:39.282Z,89.90
2022-08-09T15:13:08.733Z,89.00
2022-08-09T15:15:39.752Z,85.90
2022-08-09T15:18:14.528Z,85.90
2022-08-09T15:21:55.664Z,85.40
2022-08-09T15:24:03.178Z,85.10
2022-08-09T15:26:30.959Z,85.60
2022-08-09T15:29:04.366Z,87.40
2022-08-09T15:31:41.757Z,90.90
2022-08-09T15:34:34.550Z,84.30
2022-08-09T15:37:04.259Z,84.80
2022-08-09T15:39:53.136Z,87.20
2022-08-09T15:42:23.077Z,88.00
2022-08-09T15:44:52.883Z,87.00
2022-08-09T15:47:31.778Z,86.70
2022-08-09T15:50:14.241Z,85.30
2022-08-09T15:52:54.717Z,85.40
2022-08-09T15:55:34.461Z,86.00
2022-08-09T15:58:27.088Z,88.50
2022-08-09T16:00:56.463Z,86.40
2022-08-09T16:03:37.978Z,87.60
2022-08-09T16:06:07.850Z,84.30
2022-08-09T16:09:00.818Z,84.80
2022-08-09T16:11:30.931Z,86.50
2022-08-09T16:14:07.189Z,85.50
2022-08-09T16:16:37.309Z,86.00
2022-08-09T16:19:09.011Z,87.30
2022-08-09T16:21:37.880Z,87.70
2022-08-09T16:24:08.848Z,88.60
2022-08-09T16:26:56.825Z,88.40
2022-08-09T16:29:36.822Z,91.60
2022-08-09T16:32:20.275Z,92.40
2022-08-09T16:34:58.296Z,91.70
2022-08-09T16:37:55.686Z,91.60
2022-08-09T16:40:29.431Z,91.40
2022-08-09T16:43:05.735Z,91.10
2022-08-09T16:45:34.366Z,91.20
2022-08-09T16:48:41.607Z,92.10
2022-08-09T16:53:34.159Z,91.40
2022-08-09T16:56:09.124Z,91.90
2022-08-09T17:01:11.457Z,85.70
2022-08-09T17:03:40.495Z,90.70
2022-08-09T17:06:29.062Z,91.30
2022-08-09T17:09:16.212Z,88.30
2022-08-09T17:11:52.515Z,89.20
2022-08-09T17:14:28.029Z,86.60
2022-08-09T17:16:59.671Z,87.30
2022-08-09T17:19:47.423Z,89.90
2022-08-09T17:22:24.188Z,90.80
2022-08-09T17:25:10.036Z,91.10
2022-08-09T17:27:49.507Z,93.70
2022-08-09T17:30:25.946Z,95.40
2022-08-09T17:33:00.720Z,96.60
2022-08-09T17:35:35.389Z,99.90
2022-08-09T17:38:13.722Z,99.90
2022-08-09T17:40:59.496Z,99.90
2022-08-09T17:43:34.270Z,99.90
2022-08-09T17:46:07.563Z,99.90
2022-08-09T17:48:40.062Z,99.90
2022-08-09T17:51:18.603Z,99.90
2022-08-09T17:53:52.167Z,99.90
2022-08-09T17:56:26.761Z,99.90
2022-08-09T17:58:58.788Z,99.90
2022-08-09T18:02:03.253Z,99.90
2022-08-09T18:04:19.984Z,99.90
2022-08-09T18:06:54.387Z,99.90
2022-08-09T18:09:40.560Z,99.90
2022-08-09T18:12:17.734Z,99.90
2022-08-09T18:14:55.060Z,99.90
2022-08-09T18:17:27.161Z,99.90
2022-08-09T18:20:57.442Z,99.90
2022-08-09T18:23:05.106Z,99.90
2022-08-09T18:25:52.781Z,99.90
2022-08-09T18:31:13.615Z,99.90
2022-08-09T18:33:53.258Z,99.90
2022-08-09T18:36:25.602Z,99.90
2022-08-09T18:39:02.696Z,99.90
2022-08-09T18:41:34.770Z,99.90
2022-08-09T18:44:12.938Z,99.90
2022-08-09T18:46:46.856Z,99.90
2022-08-09T18:49:20.588Z,99.90
2022-08-09T18:51:55.106Z,99.90
2022-08-09T18:54:28.968Z,99.90
2022-08-09T18:57:06.413Z,99.90
2022-08-09T18:59:37.424Z,99.90
2022-08-09T19:02:19.158Z,99.90
2022-08-09T19:05:04.403Z,99.90
2022-08-09T19:07:37.094Z,99.90
2022-08-09T19:10:15.473Z,99.90
2022-08-09T19:12:51.327Z,99.90
2022-08-09T19:15:36.247Z,99.90
2022-08-09T19:18:06.826Z,99.90
2022-08-09T19:20:56.772Z,99.90
2022-08-09T19:24:33.610Z,99.90
2022-08-09T19:26:15.887Z,99.90
2022-08-09T19:28:48.917Z,99.90
2022-08-09T19:31:17.971Z,99.90
2022-08-09T19:33:47.859Z,99.90
2022-08-09T19:36:16.545Z,99.90
2022-08-09T19:38:45.994Z,99.90
2022-08-09T19:46:35.566Z,99.90
2022-08-09T19:50:09.025Z,99.90
2022-08-09T19:52:10.184Z,99.90
2022-08-09T19:54:41.080Z,99.90
2022-08-09T19:57:10.452Z,99.90
2022-08-09T19:59:57.246Z,99.90
2022-08-09T20:04:07.139Z,99.90
2022-08-09T20:05:17.955Z,99.90
2022-08-09T20:07:59.181Z,99.90
2022-08-09T20:10:34.436Z,99.90
2022-08-09T20:13:04.984Z,99.90
2022-08-09T20:16:37.769Z,99.90
2022-08-09T20:18:27.790Z,99.90
2022-08-09T20:20:58.862Z,99.90
2022-08-09T20:23:39.395Z,99.90
2022-08-09T20:26:10.022Z,99.90
2022-08-09T20:28:48.611Z,99.90
2022-08-09T20:31:19.292Z,99.90
2022-08-09T20:33:52.466Z,99.90
2022-08-09T20:36:28.326Z,99.90
2022-08-09T20:39:29.028Z,99.90
2022-08-09T20:41:48.880Z,99.90
2022-08-09T20:44:26.557Z,99.90
2022-08-09T20:46:57.784Z,99.90
2022-08-09T20:49:28.630Z,99.90
2022-08-09T20:52:00.404Z,99.90
2022-08-09T20:54:29.402Z,99.90
2022-08-09T20:56:58.847Z,99.90
2022-08-09T21:00:20.983Z,99.90
2022-08-09T21:02:18.549Z,99.90
2022-08-09T21:05:57.930Z,99.90
2022-08-09T21:07:40.368Z,99.90
2022-08-09T21:10:10.939Z,99.90
2022-08-09T21:12:40.503Z,99.90
2022-08-09T21:15:34.251Z,99.90
2022-08-09T21:18:21.742Z,99.90
2022-08-09T21:20:54.025Z,99.90
2022-08-09T21:23:26.591Z,99.90
2022-08-09T21:26:15.520Z,99.90
2022-08-09T21:28:56.072Z,99.90
2022-08-09T21:31:48.222Z,99.90
2022-08-09T21:34:21.007Z,99.90
2022-08-09T21:36:57.699Z,99.90
2022-08-09T21:39:41.511Z,99.90
2022-08-09T21:42:11.356Z,99.90
2022-08-09T21:44:42.650Z,99.90
2022-08-09T21:47:17.606Z,99.90
2022-08-09T21:49:48.174Z,99.90
2022-08-09T21:52:20.377Z,99.90
2022-08-09T21:57:39.362Z,99.90
2022-08-09T22:02:51.122Z,99.90
2022-08-09T22:05:36.012Z,99.90
2022-08-09T22:08:13.926Z,99.90
2022-08-09T22:11:49.841Z,99.90
2022-08-09T22:13:36.611Z,99.90
2022-08-09T22:18:37.210Z,99.90
2022-08-09T22:21:09.725Z,99.90
2022-08-09T22:24:01.213Z,99.90
2022-08-09T22:26:34.846Z,99.90
2022-08-09T22:29:09.873Z,99.90
2022-08-09T22:31:53.251Z,99.90
2022-08-09T22:34:26.205Z,99.90
2022-08-09T22:36:55.642Z,99.90
2022-08-09T22:39:57.097Z,99.90
2022-08-09T22:42:22.470Z,99.90
2022-08-09T22:45:00.091Z,99.90
2022-08-09T22:48:10.455Z,99.90
2022-08-09T22:53:04.247Z,99.90
2022-08-09T22:58:32.570Z,99.90
2022-08-09T23:01:05.881Z,99.90
2022-08-09T23:04:03.887Z,99.90
2022-08-09T23:06:32.737Z,99.90
2022-08-09T23:09:04.994Z,99.90
2022-08-09T23:11:33.752Z,99.90
2022-08-09T23:14:03.525Z,99.90
2022-08-09T23:16:34.247Z,99.90
2022-08-09T23:19:02.866Z,99.90
2022-08-09T23:21:34.760Z,99.90
2022-08-09T23:24:07.178Z,99.90
2022-08-09T23:26:36.657Z,99.90
2022-08-09T23:29:05.689Z,99.90
2022-08-09T23:34:04.713Z,99.90
2022-08-09T23:36:33.530Z,99.90
2022-08-09T23:39:02.522Z,99.90
2022-08-09T23:41:31.178Z,99.90
2022-08-09T23:46:28.692Z,99.90
2022-08-09T23:48:57.335Z,99.90
2022-08-09T23:51:28.215Z,99.90
2022-08-09T23:56:53.052Z,99.90
